Time;durP1;ratioP1;P1;durP2;ratioP2;P2;SDS_P1;SDS_P2;PMS_P1;PMS_P2;Temp;Humidity;BMP_temperature;BMP_pressure;BME280_temperature;BME280_humidity;BME280_pressure;Samples;Min_cycle;Max_cycle;Signal;HPM_P1;HPM_P2
2022/11/10 00:00:20;;;;;;;;;;;;;;;7.78;100.00;100231.34;4962032;28;19929;-83
2022/11/10 00:03:04;;;;;;;;;;;;;;;7.78;100.00;100221.09;4966787;28;19950;-78
2022/11/10 00:05:48;;;;;;;;;;;;;;;7.76;100.00;100234.56;4964443;28;20033;-78
2022/11/10 00:08:32;;;;;;;;;;;;;;;7.77;100.00;100219.53;4964447;28;19929;-78
2022/11/10 00:11:16;;;;;;;;;;;;;;;7.81;100.00;100219.47;4966203;28;20451;-78
2022/11/10 00:17:03;;;;;;;;;;;;;;;7.79;100.00;100232.94;4965443;28;20427;-76
2022/11/10 00:19:47;;;;;;;;;;;;;;;7.79;100.00;100235.69;4966826;28;19929;-77
2022/11/10 00:22:32;;;;;;;;;;;;;;;7.61;100.00;100215.78;4964040;28;19937;-78
2022/11/10 00:25:16;;;;;;;;;;;;;;;7.81;100.00;100252.63;4984254;28;19952;-83
2022/11/10 00:28:00;;;;;;;;;;;;;;;7.78;100.00;100247.94;4983229;28;19930;-82
2022/11/10 00:30:44;;;;;;;;;;;;;;;7.80;100.00;100262.13;4965001;28;19969;-82
2022/11/10 00:33:28;;;;;;;;;;;;;;;7.83;100.00;100259.31;4969009;28;19928;-82
2022/11/10 00:36:13;;;;;;;;;;;;;;;7.88;100.00;100264.38;4967491;28;19937;-82
2022/11/10 00:38:57;;;;;;;;;;;;;;;7.89;100.00;100256.84;4966882;28;19928;-82
2022/11/10 00:41:42;;;;;;;;;;;;;;;7.90;100.00;100264.75;4964604;28;20295;-82
2022/11/10 00:44:25;;;;;;;;;;;;;;;7.89;100.00;100259.63;4964458;28;19945;-81
2022/11/10 00:47:09;;;;;;;;;;;;;;;7.86;100.00;100265.97;4967987;28;19988;-82
2022/11/10 00:49:53;;;;;;;;;;;;;;;7.89;100.00;100259.63;4968258;28;20009;-82
2022/11/10 00:52:37;;;;;;;;;;;;;;;7.87;100.00;100262.03;4963295;28;20293;-82
2022/11/10 00:55:22;;;;;;;;;;;;;;;7.85;100.00;100267.94;4970149;28;20470;-82
2022/11/10 00:58:06;;;;;;;;;;;;;;;7.82;100.00;100266.03;4966102;28;20506;-82
2022/11/10 01:00:49;;;;;;;;;;;;;;;7.84;100.00;100268.38;4964885;28;19977;-77
2022/11/10 01:03:34;;;;;;;;;;;;;;;7.85;100.00;100269.94;4962706;28;19988;-82
2022/11/10 01:06:18;;;;;;;;;;;;;;;7.84;100.00;100268.38;4967904;28;20006;-82
2022/11/10 01:09:03;;;;;;;;;;;;;;;7.85;100.00;100258.88;4966950;28;19936;-82
2022/11/10 01:11:47;;;;;;;;;;;;;;;7.82;100.00;100254.19;4966860;28;19937;-82
2022/11/10 01:14:31;;;;;;;;;;;;;;;7.79;100.00;100255.81;4963392;28;20477;-82
2022/11/10 01:17:14;;;;;;;;;;;;;;;7.78;100.00;100270.03;4961775;28;19976;-82
2022/11/10 01:19:58;;;;;;;;;;;;;;;7.76;100.00;100272.41;4968640;28;20050;-77
2022/11/10 01:22:42;;;;;;;;;;;;;;;7.77;100.00;100271.22;4963326;28;20010;-77
2022/11/10 01:25:26;;;;;;;;;;;;;;;7.74;100.00;100286.63;4963869;28;20069;-77
2022/11/10 01:28:10;;;;;;;;;;;;;;;7.79;100.00;100282.63;4963897;28;19950;-77
2022/11/10 01:30:58;;;;;;;;;;;;;;;7.81;100.00;100296.81;4965687;28;20399;-77
2022/11/10 01:33:41;;;;;;;;;;;;;;;7.78;100.00;100294.88;4972161;28;19929;-77
2022/11/10 01:36:25;;;;;;;;;;;;;;;7.80;100.00;100295.25;4969685;28;19929;-77
2022/11/10 01:39:09;;;;;;;;;;;;;;;7.79;100.00;100282.63;4970796;28;19977;-77
2022/11/10 01:41:53;;;;;;;;;;;;;;;7.74;100.00;100289.38;4972500;28;20013;-77
2022/11/10 01:44:37;;;;;;;;;;;;;;;7.76;100.00;100283.47;4969938;28;20307;-77
2022/11/10 01:47:21;;;;;;;;;;;;;;;7.73;100.00;100276.78;4964098;28;20403;-77
2022/11/10 01:50:05;;;;;;;;;;;;;;;7.73;100.00;100284.28;4966221;28;19946;-77
2022/11/10 01:52:49;;;;;;;;;;;;;;;7.77;100.00;100279.50;4965483;28;19941;-77
2022/11/10 01:55:33;;;;;;;;;;;;;;;7.80;100.00;100295.25;4969870;28;20001;-82
2022/11/10 01:58:18;;;;;;;;;;;;;;;7.80;100.00;100298.03;4961399;28;19984;-82
2022/11/10 02:03:50;;;;;;;;;;;;;;;7.85;100.00;100300.31;4846371;23;19926;-77
2022/11/10 02:06:36;;;;;;;;;;;;;;;7.86;100.00;100301.88;4980304;28;20403;-78
2022/11/10 02:09:20;;;;;;;;;;;;;;;7.86;100.00;100293.59;4984417;28;19945;-77
2022/11/10 02:12:04;;;;;;;;;;;;;;;7.85;100.00;100297.53;4981324;28;19989;-77
2022/11/10 02:14:48;;;;;;;;;;;;;;;7.86;100.00;100299.13;4970268;28;19937;-77
2022/11/10 02:17:32;;;;;;;;;;;;;;;7.89;100.00;100310.13;4968164;28;20359;-77
2022/11/10 02:20:17;;;;;;;;;;;;;;;7.91;100.00;100306.97;4971967;28;20348;-77
2022/11/10 02:23:33;;;;;;;;;;;;;;;7.88;100.00;100307.78;4967306;28;20021;-82
2022/11/10 02:26:19;;;;;;;;;;;;;;;7.87;100.00;100311.75;4970644;28;20784;-82
2022/11/10 02:29:03;;;;;;;;;;;;;;;7.84;100.00;100323.63;4979249;28;19929;-82
2022/11/10 02:31:47;;;;;;;;;;;;;;;7.83;100.00;100322.81;4970041;28;19929;-82
2022/11/10 02:34:31;;;;;;;;;;;;;;;7.85;100.00;100314.91;4963297;28;19936;-82
2022/11/10 02:37:15;;;;;;;;;;;;;;;7.87;100.00;100317.25;4968410;28;19973;-77
2022/11/10 02:40:00;;;;;;;;;;;;;;;7.90;100.00;100311.69;4984565;28;20347;-77
2022/11/10 02:42:44;;;;;;;;;;;;;;;7.92;100.00;100314.06;4969373;28;20136;-76
2022/11/10 02:45:28;;;;;;;;;;;;;;;7.89;100.00;100310.13;4973452;28;19933;-77
2022/11/10 02:48:13;;;;;;;;;;;;;;;7.86;100.00;100318.44;4971027;28;20414;-76
2022/11/10 02:50:57;;;;;;;;;;;;;;;7.81;100.00;100325.19;4979390;28;20410;-77
2022/11/10 02:53:41;;;;;;;;;;;;;;;7.80;100.00;100322.88;4971208;28;19924;-76
2022/11/10 02:56:25;;;;;;;;;;;;;;;7.79;100.00;100332.34;4969376;28;19937;-77
2022/11/10 02:59:09;;;;;;;;;;;;;;;7.78;100.00;100325.25;4969307;28;19929;-76
2022/11/10 03:01:53;;;;;;;;;;;;;;;7.81;100.00;100329.94;4969502;28;20490;-77
2022/11/10 03:04:37;;;;;;;;;;;;;;;7.82;100.00;100331.50;4969546;28;19985;-77
2022/11/10 03:07:21;;;;;;;;;;;;;;;7.83;100.00;100349.66;4971226;28;19978;-76
2022/11/10 03:10:05;;;;;;;;;;;;;;;7.85;100.00;100355.53;4968839;28;20065;-77
2022/11/10 03:12:52;;;;;;;;;;;;;;;7.83;100.00;100360.72;4970042;28;19933;-77
2022/11/10 03:15:36;;;;;;;;;;;;;;;7.83;100.00;100357.94;4969465;28;19976;-77
2022/11/10 03:18:20;;;;;;;;;;;;;;;7.81;100.00;100352.03;4970637;28;19936;-82
2022/11/10 03:21:04;;;;;;;;;;;;;;;7.82;100.00;100365.44;4969888;28;20017;-81
2022/11/10 03:23:47;;;;;;;;;;;;;;;7.86;100.00;100370.94;4970068;28;19929;-82
2022/11/10 03:26:31;;;;;;;;;;;;;;;7.85;100.00;100370.13;4969828;28;20077;-81
2022/11/10 03:29:15;;;;;;;;;;;;;;;7.81;100.00;100382.41;4968478;28;19929;-82
2022/11/10 03:31:59;;;;;;;;;;;;;;;7.78;100.00;100378.50;4970347;28;19928;-82
2022/11/10 03:34:43;;;;;;;;;;;;;;;7.81;100.00;100379.66;4970368;28;19944;-77
2022/11/10 03:37:27;;;;;;;;;;;;;;;7.81;100.00;100387.94;4969435;28;20303;-82
2022/11/10 03:40:11;;;;;;;;;;;;;;;7.82;100.00;100392.28;4967966;28;19929;-82
2022/11/10 03:42:55;;;;;;;;;;;;;;;7.82;100.00;100389.50;4972435;28;20546;-82
2022/11/10 03:45:39;;;;;;;;;;;;;;;7.81;100.00;100385.16;4977800;28;19964;-82
2022/11/10 03:48:25;;;;;;;;;;;;;;;7.84;100.00;100387.13;4975498;28;20425;-81
2022/11/10 03:51:09;;;;;;;;;;;;;;;7.83;100.00;100382.81;4969408;28;20012;-82
2022/11/10 03:53:53;;;;;;;;;;;;;;;7.87;100.00;100395.38;4968703;28;20402;-77
2022/11/10 03:56:37;;;;;;;;;;;;;;;7.84;100.00;100390.69;4969848;28;19969;-82
2022/11/10 03:59:21;;;;;;;;;;;;;;;7.83;100.00;100399.38;4966724;28;19949;-82
2022/11/10 04:02:05;;;;;;;;;;;;;;;7.83;100.00;100393.84;4967861;28;19929;-82
2022/11/10 04:10:58;;;;;;;;;;;;;;;7.85;100.00;100413.53;4967778;28;19997;-82
2022/11/10 04:16:47;;;;;;;;;;;;;;;7.82;100.00;100440.00;4953354;28;19929;-77
2022/11/10 04:19:31;;;;;;;;;;;;;;;7.85;100.00;100449.44;4970325;28;20014;-77
2022/11/10 04:23:25;;;;;;;;;;;;;;;7.85;100.00;100443.91;4968867;28;19937;-77
2022/11/10 04:25:19;;;;;;;;;;;;;;;7.85;100.00;100432.88;4968744;28;19977;-77
2022/11/10 04:28:03;;;;;;;;;;;;;;;7.83;100.00;100443.56;4966563;28;20284;-77
2022/11/10 04:30:47;;;;;;;;;;;;;;;7.81;100.00;100456.97;4970314;28;19929;-82
2022/11/10 04:33:30;;;;;;;;;;;;;;;7.80;100.00;100447.94;4970041;28;19929;-77
2022/11/10 04:36:16;;;;;;;;;;;;;;;7.83;100.00;100449.09;4969245;28;19937;-77
2022/11/10 04:38:59;;;;;;;;;;;;;;;7.79;100.00;100443.59;4970479;28;20287;-78
2022/11/10 04:41:44;;;;;;;;;;;;;;;7.78;100.00;100438.47;4972705;28;20485;-77
2022/11/10 04:44:27;;;;;;;;;;;;;;;7.77;100.00;100437.69;4974339;28;20077;-77
2022/11/10 04:47:12;;;;;;;;;;;;;;;7.78;100.00;100441.22;4972202;28;19928;-77
2022/11/10 04:49:56;;;;;;;;;;;;;;;7.79;100.00;100446.34;4973223;28;19977;-77
2022/11/10 04:52:39;;;;;;;;;;;;;;;7.79;100.00;100446.34;4969500;28;19937;-77
2022/11/10 04:55:23;;;;;;;;;;;;;;;7.80;100.00;100449.91;4971725;28;19929;-77
2022/11/10 04:58:07;;;;;;;;;;;;;;;7.81;100.00;100451.44;4969511;28;20069;-77
2022/11/10 05:00:51;;;;;;;;;;;;;;;7.82;100.00;100453.03;4969272;28;20029;-77
2022/11/10 05:03:36;;;;;;;;;;;;;;;7.77;100.00;100456.22;4972759;28;19945;-77
2022/11/10 05:06:20;;;;;;;;;;;;;;;7.77;100.00;100457.00;4971486;28;20000;-78
2022/11/10 05:09:03;;;;;;;;;;;;;;;7.78;100.00;100457.81;4971458;28;19937;-77
2022/11/10 05:11:47;;;;;;;;;;;;;;;7.76;100.00;100460.19;4971103;28;20066;-77
2022/11/10 05:14:31;;;;;;;;;;;;;;;7.77;100.00;100461.75;4973522;28;20344;-82
2022/11/10 05:17:15;;;;;;;;;;;;;;;7.72;100.00;100465.75;4972114;28;19929;-82
2022/11/10 05:19:59;;;;;;;;;;;;;;;7.74;100.00;100454.28;4970815;28;19941;-82
2022/11/10 05:22:45;;;;;;;;;;;;;;;7.72;100.00;100473.25;4965053;28;20919;-82
2022/11/10 05:25:28;;;;;;;;;;;;;;;7.72;100.00;100476.00;4964627;28;19937;-82
2022/11/10 05:28:12;;;;;;;;;;;;;;;7.64;100.00;100475.28;4967375;28;19929;-81
2022/11/10 05:30:56;;;;;;;;;;;;;;;7.67;100.00;100495.75;4973701;28;19937;-77
2022/11/10 05:33:40;;;;;;;;;;;;;;;7.70;100.00;100500.47;4959947;28;19981;-83
2022/11/10 05:36:24;;;;;;;;;;;;;;;7.68;100.00;100509.19;4967751;28;19976;-82
2022/11/10 05:39:09;;;;;;;;;;;;;;;7.67;100.00;100512.34;4969428;28;19980;-81
2022/11/10 05:41:53;;;;;;;;;;;;;;;7.65;100.00;100514.69;4966518;28;19972;-82
2022/11/10 05:44:39;;;;;;;;;;;;;;;7.69;100.00;100523.75;4966494;28;19977;-83
2022/11/10 05:47:23;;;;;;;;;;;;;;;7.64;100.00;100535.25;4972081;28;20370;-82
2022/11/10 05:50:07;;;;;;;;;;;;;;;7.63;100.00;100539.19;4969389;28;21533;-76
2022/11/10 05:52:52;;;;;;;;;;;;;;;7.59;100.00;100532.91;4966063;28;19979;-77
2022/11/10 05:55:36;;;;;;;;;;;;;;;7.63;100.00;100547.47;4967811;28;19975;-77
2022/11/10 05:58:21;;;;;;;;;;;;;;;7.60;100.00;100560.13;4982032;28;20024;-77
2022/11/10 06:01:05;;;;;;;;;;;;;;;7.59;100.00;100566.03;4963107;28;19941;-78
2022/11/10 06:03:49;;;;;;;;;;;;;;;7.59;100.00;100566.03;4966448;28;20024;-77
2022/11/10 06:06:33;;;;;;;;;;;;;;;7.56;100.00;100572.38;4965047;28;20025;-78
2022/11/10 06:09:17;;;;;;;;;;;;;;;7.56;100.00;100575.13;4965915;28;19949;-83
2022/11/10 06:12:02;;;;;;;;;;;;;;;7.56;100.00;100583.41;4968424;28;19937;-76
2022/11/10 06:14:46;;;;;;;;;;;;;;;7.57;100.00;100590.47;4954340;28;19949;-78
2022/11/10 06:17:30;;;;;;;;;;;;;;;7.61;100.00;100581.00;4961354;28;20315;-77
2022/11/10 06:20:14;;;;;;;;;;;;;;;7.59;100.00;100611.00;4975265;28;19929;-77
2022/11/10 06:23:01;;;;;;;;;;;;;;;7.63;100.00;100611.75;4964930;28;20402;-77
2022/11/10 06:25:45;;;;;;;;;;;;;;;7.66;100.00;100610.94;4965998;28;19992;-77
2022/11/10 06:28:28;;;;;;;;;;;;;;;7.69;100.00;100614.88;4983461;28;19928;-78
2022/11/10 06:31:12;;;;;;;;;;;;;;;7.68;100.00;100616.88;4963031;28;19929;-76
2022/11/10 06:33:56;;;;;;;;;;;;;;;7.70;100.00;100627.50;4970181;28;19980;-77
2022/11/10 06:36:40;;;;;;;;;;;;;;;7.69;100.00;100623.94;4967367;28;19936;-78
2022/11/10 06:39:24;;;;;;;;;;;;;;;7.71;100.00;100640.13;4967129;28;19929;-77
2022/11/10 06:42:08;;;;;;;;;;;;;;;7.74;100.00;100633.78;4969205;28;19930;-77
2022/11/10 06:44:52;;;;;;;;;;;;;;;7.78;100.00;100621.53;4966711;28;20529;-83
2022/11/10 06:47:35;;;;;;;;;;;;;;;7.85;100.00;100626.22;4965642;28;20418;-82
2022/11/10 06:50:19;;;;;;;;;;;;;;;7.91;100.00;100632.88;4991523;28;19925;-81
2022/11/10 06:53:04;;;;;;;;;;;;;;;7.96;100.00;100643.53;4979721;28;19929;-82
2022/11/10 06:55:48;;;;;;;;;;;;;;;8.01;100.00;100637.53;4965725;28;19928;-83
2022/11/10 06:58:32;;;;;;;;;;;;;;;8.09;100.00;100652.88;4968505;28;19929;-82
2022/11/10 07:01:16;;;;;;;;;;;;;;;8.15;100.00;100658.78;4967661;28;19933;-82
2022/11/10 07:04:00;;;;;;;;;;;;;;;8.22;100.00;100670.56;4970760;28;19950;-82
2022/11/10 07:06:45;;;;;;;;;;;;;;;8.20;100.00;100661.13;4967697;28;19932;-86
2022/11/10 07:09:29;;;;;;;;;;;;;;;8.23;100.00;100672.16;4984466;28;19985;-85
2022/11/10 07:12:13;;;;;;;;;;;;;;;8.25;100.00;100672.50;4954867;28;19929;-86
2022/11/10 07:14:57;;;;;;;;;;;;;;;8.32;100.00;100675.28;4952819;28;19976;-86
2022/11/10 07:17:41;;;;;;;;;;;;;;;8.34;100.00;100672.88;4952153;28;20073;-86
2022/11/10 07:20:27;;;;;;;;;;;;;;;8.39;100.00;100674.44;4953085;28;19929;-86
2022/11/10 07:23:11;;;;;;;;;;;;;;;8.49;100.00;100683.84;4952157;28;19929;-86
2022/11/10 07:25:55;;;;;;;;;;;;;;;8.54;100.00;100689.69;4954499;28;19929;-79
2022/11/10 07:28:39;;;;;;;;;;;;;;;8.57;100.00;100696.41;4959164;28;19990;-79
2022/11/10 07:31:23;;;;;;;;;;;;;;;8.64;100.00;100707.41;4967377;28;19929;-79
2022/11/10 07:34:08;;;;;;;;;;;;;;;8.66;100.00;100705.00;4970088;28;20224;-79
2022/11/10 07:36:52;;;;;;;;;;;;;;;8.70;100.00;100705.75;4953118;28;19929;-78
2022/11/10 07:39:35;;;;;;;;;;;;;;;8.65;100.00;100720.06;4953380;28;19981;-79
2022/11/10 07:42:19;;;;;;;;;;;;;;;8.64;100.00;100712.94;4953648;28;19945;-86
2022/11/10 07:45:04;;;;;;;;;;;;;;;8.57;100.00;100724.06;4975474;28;19933;-79
2022/11/10 07:47:49;;;;;;;;;;;;;;;8.56;100.00;100728.03;4971869;28;20475;-78
2022/11/10 07:50:33;;;;;;;;;;;;;;;8.63;100.00;100739.03;4973113;28;19929;-78
2022/11/10 07:53:20;;;;;;;;;;;;;;;8.66;100.00;100735.44;4972685;28;19944;-78
2022/11/10 07:56:04;;;;;;;;;;;;;;;8.62;100.00;100737.44;4972499;28;20385;-78
2022/11/10 07:58:48;;;;;;;;;;;;;;;8.60;100.00;100748.94;4972668;28;19929;-79
2022/11/10 08:01:32;;;;;;;;;;;;;;;8.65;100.00;100750.47;4955847;28;20009;-79
2022/11/10 08:04:17;;;;;;;;;;;;;;;8.71;100.00;100746.84;4953693;28;19930;-84
2022/11/10 08:07:01;;;;;;;;;;;;;;;8.71;100.00;100746.06;4954168;28;20032;-85
2022/11/10 08:09:45;;;;;;;;;;;;;;;8.67;100.00;100750.84;4954615;28;19928;-86
2022/11/10 08:12:29;;;;;;;;;;;;;;;8.69;100.00;100738.19;4953886;28;19993;-85
2022/11/10 08:15:14;;;;;;;;;;;;;;;8.69;100.00;100754.00;4958028;28;19977;-85
2022/11/10 08:17:59;;;;;;;;;;;;;;;8.70;100.00;100755.56;4957336;28;19986;-86
2022/11/10 08:20:43;;;;;;;;;;;;;;;8.68;100.00;100757.94;4957827;28;20348;-79
2022/11/10 08:23:27;;;;;;;;;;;;;;;8.70;100.00;100769.38;4957459;28;19928;-86
2022/11/10 08:26:11;;;;;;;;;;;;;;;8.72;100.00;100773.34;4958410;28;19950;-85
2022/11/10 08:28:55;;;;;;;;;;;;;;;8.72;100.00;100778.06;4957550;28;19977;-86
2022/11/10 08:31:40;;;;;;;;;;;;;;;8.75;100.00;100791.09;4956515;28;20403;-86
2022/11/10 08:34:24;;;;;;;;;;;;;;;8.83;100.00;100787.88;4963828;28;19929;-86
2022/11/10 08:37:08;;;;;;;;;;;;;;;8.86;100.00;100791.78;4976352;28;19929;-86
2022/11/10 08:39:52;;;;;;;;;;;;;;;8.80;100.00;100790.66;4976291;28;19977;-80
2022/11/10 08:42:36;;;;;;;;;;;;;;;8.83;100.00;100798.94;4975637;28;19933;-85
2022/11/10 08:45:20;;;;;;;;;;;;;;;8.89;100.00;100802.06;4976074;28;19932;-86
2022/11/10 08:48:05;;;;;;;;;;;;;;;8.88;100.00;100795.72;4976556;28;20287;-84
2022/11/10 08:50:49;;;;;;;;;;;;;;;8.98;100.00;100799.59;4975816;28;20323;-86
2022/11/10 08:53:33;;;;;;;;;;;;;;;9.09;100.00;100803.09;4976143;28;19929;-85
2022/11/10 08:56:17;;;;;;;;;;;;;;;9.17;100.00;100817.63;4975676;28;19933;-84
2022/11/10 08:59:01;;;;;;;;;;;;;;;9.21;100.00;100813.66;4975804;28;20387;-79
2022/11/10 09:01:44;;;;;;;;;;;;;;;9.25;100.00;100819.94;4976355;28;19930;-85
2022/11/10 09:04:29;;;;;;;;;;;;;;;9.26;100.00;100832.56;5011604;28;19944;-86
2022/11/10 09:07:12;;;;;;;;;;;;;;;9.23;100.00;100844.47;5015345;28;19967;-85
2022/11/10 09:09:57;;;;;;;;;;;;;;;9.25;100.00;100846.84;5015478;28;19976;-85
2022/11/10 09:12:41;;;;;;;;;;;;;;;9.16;100.00;100844.53;5015663;28;19929;-86
2022/11/10 09:15:25;;;;;;;;;;;;;;;9.19;100.00;100842.91;5015517;28;19928;-86
2022/11/10 09:18:10;;;;;;;;;;;;;;;9.19;100.00;100852.00;5014204;28;19928;-80
2022/11/10 09:20:54;;;;;;;;;;;;;;;9.21;100.00;100851.63;5027260;28;20019;-85
2022/11/10 09:23:38;;;;;;;;;;;;;;;9.19;100.00;100857.53;5014611;28;20006;-86
2022/11/10 09:26:22;;;;;;;;;;;;;;;9.20;100.00;100856.38;5013949;28;19945;-86
2022/11/10 09:29:06;;;;;;;;;;;;;;;9.17;100.00;100859.16;5014306;28;19928;-86
2022/11/10 09:31:50;;;;;;;;;;;;;;;9.28;100.00;100868.94;5014482;28;19932;-85
2022/11/10 09:34:34;;;;;;;;;;;;;;;9.27;100.00;100874.88;4999274;28;19928;-86
2022/11/10 09:37:18;;;;;;;;;;;;;;;9.38;100.00;100895.00;5014344;28;19928;-86
2022/11/10 09:40:02;;;;;;;;;;;;;;;9.52;100.00;100894.84;5013700;28;20300;-86
2022/11/10 09:42:46;;;;;;;;;;;;;;;9.65;100.00;100892.38;5013822;28;19929;-86
2022/11/10 09:45:38;;;;;;;;;;;;;;;9.74;100.00;100892.69;5013815;28;19929;-86
2022/11/10 09:48:29;;;;;;;;;;;;;;;9.82;100.00;100891.41;5014057;28;19979;-86
2022/11/10 09:51:18;;;;;;;;;;;;;;;9.68;100.00;100884.03;5014167;28;19928;-86
2022/11/10 09:54:11;;;;;;;;;;;;;;;9.77;100.00;100884.34;5026939;28;19928;-84
2022/11/10 09:56:58;;;;;;;;;;;;;;;9.88;100.00;100894.50;5028668;28;19932;-79
2022/11/10 09:59:42;;;;;;;;;;;;;;;9.97;100.00;100898.38;5014656;28;19968;-80
2022/11/10 10:02:28;;;;;;;;;;;;;;;9.93;100.00;100900.41;5013310;28;19935;-79
2022/11/10 10:05:21;;;;;;;;;;;;;;;10.06;100.00;100895.13;5013604;28;19928;-79
2022/11/10 10:08:06;;;;;;;;;;;;;;;10.14;100.00;100905.72;5025793;28;19929;-79
2022/11/10 10:10:51;;;;;;;;;;;;;;;10.14;100.00;100919.59;5013311;28;19960;-79
2022/11/10 10:13:41;;;;;;;;;;;;;;;10.13;100.00;100912.47;5026003;28;19968;-79
2022/11/10 10:16:29;;;;;;;;;;;;;;;10.18;100.00;100909.28;5014229;28;19928;-86
2022/11/10 10:19:15;;;;;;;;;;;;;;;10.18;100.00;100906.50;5027473;28;20419;-85
2022/11/10 10:22:19;;;;;;;;;;;;;;;10.18;100.00;100906.50;5013652;28;19932;-86
2022/11/10 10:25:07;;;;;;;;;;;;;;;10.15;100.00;100909.31;5019544;28;19928;-84
2022/11/10 10:28:05;;;;;;;;;;;;;;;10.07;100.00;100914.09;5028471;28;20303;-86
2022/11/10 10:30:49;;;;;;;;;;;;;;;10.05;100.00;100910.97;5015275;28;19929;-84
2022/11/10 10:33:33;;;;;;;;;;;;;;;10.08;100.00;100898.25;5014756;28;20064;-80
2022/11/10 10:36:24;;;;;;;;;;;;;;;10.01;100.00;100910.22;5013394;28;20575;-84
2022/11/10 10:39:11;;;;;;;;;;;;;;;9.96;100.00;100927.28;4998285;28;19929;-85
2022/11/10 10:41:56;;;;;;;;;;;;;;;9.97;100.00;100917.00;4998431;28;20331;-85
2022/11/10 10:44:40;;;;;;;;;;;;;;;10.06;100.00;100918.09;5013113;28;20003;-84
2022/11/10 10:47:34;;;;;;;;;;;;;;;10.15;100.00;100920.41;5016955;28;20397;-84
2022/11/10 10:50:22;;;;;;;;;;;;;;;10.04;100.00;100914.94;5017552;28;19928;-85
2022/11/10 10:53:06;;;;;;;;;;;;;;;10.01;100.00;100918.53;5017658;28;19944;-85
2022/11/10 10:55:59;;;;;;;;;;;;;;;10.00;100.00;100925.25;5012601;28;20397;-85
2022/11/10 10:58:53;;;;;;;;;;;;;;;10.00;100.00;100921.69;4998016;28;19929;-85
2022/11/10 11:01:37;;;;;;;;;;;;;;;9.94;100.00;100926.94;5012372;28;19931;-84
2022/11/10 11:04:32;;;;;;;;;;;;;;;9.93;100.00;100930.09;5011755;28;20413;-85
2022/11/10 11:07:23;;;;;;;;;;;;;;;9.90;100.00;100928.94;5012376;28;20044;-85
2022/11/10 11:10:17;;;;;;;;;;;;;;;9.83;100.00;100932.56;5012049;28;19976;-85
2022/11/10 11:13:14;;;;;;;;;;;;;;;9.89;100.00;100935.69;5012939;28;19971;-84
2022/11/10 11:16:00;;;;;;;;;;;;;;;9.85;100.00;100940.47;5012911;28;19928;-78
2022/11/10 11:18:44;;;;;;;;;;;;;;;9.81;100.00;100946.03;5011945;28;19933;-80
2022/11/10 11:21:33;;;;;;;;;;;;;;;9.85;100.00;100957.09;5012154;28;20020;-79
2022/11/10 11:24:23;;;;;;;;;;;;;;;9.86;100.00;100955.91;4996844;28;19932;-79
2022/11/10 11:27:16;;;;;;;;;;;;;;;9.87;100.00;100963.00;4997179;28;20030;-79
2022/11/10 11:30:05;;;;;;;;;;;;;;;9.91;100.00;100966.53;5011251;28;19972;-79
2022/11/10 11:32:55;;;;;;;;;;;;;;;9.85;100.00;100959.88;5012196;28;19928;-79
2022/11/10 11:35:49;;;;;;;;;;;;;;;9.84;100.00;100972.13;5011904;28;19928;-84
2022/11/10 11:38:49;;;;;;;;;;;;;;;9.77;100.00;100961.13;5011683;28;20000;-86
2022/11/10 11:41:33;;;;;;;;;;;;;;;9.71;100.00;100971.06;5011956;28;20330;-85
2022/11/10 11:44:36;;;;;;;;;;;;;;;9.70;100.00;100966.72;5011233;28;19929;-86
2022/11/10 11:47:39;;;;;;;;;;;;;;;9.62;100.00;100965.22;5011246;28;19932;-85
2022/11/10 11:50:36;;;;;;;;;;;;;;;9.57;100.00;100973.94;5011433;28;19929;-80
2022/11/10 11:53:35;;;;;;;;;;;;;;;9.64;100.00;100996.06;5024593;28;20414;-85
2022/11/10 11:56:21;;;;;;;;;;;;;;;9.63;100.00;100988.94;5011615;28;19991;-85
2022/11/10 11:59:08;;;;;;;;;;;;;;;9.62;100.00;100990.16;5024348;28;19976;-85
2022/11/10 12:02:09;;;;;;;;;;;;;;;9.57;100.00;101001.66;5011841;28;19928;-85
2022/11/10 12:05:12;;;;;;;;;;;;;;;9.59;100.00;101004.78;5014477;28;19929;-86
2022/11/10 12:08:15;;;;;;;;;;;;;;;9.63;100.00;101009.09;5011788;28;19928;-85
2022/11/10 12:10:59;;;;;;;;;;;;;;;9.61;100.00;101013.50;5011994;28;19928;-85
2022/11/10 12:13:49;;;;;;;;;;;;;;;9.55;100.00;101009.56;5013244;28;19968;-79
2022/11/10 12:16:34;;;;;;;;;;;;;;;9.52;100.00;101007.63;5013215;28;19928;-79
2022/11/10 12:19:21;;;;;;;;;;;;;;;9.48;100.00;101015.16;5012961;28;19992;-79
2022/11/10 12:22:11;;;;;;;;;;;;;;;9.45;100.00;101016.78;5013413;28;19987;-79
2022/11/10 12:24:55;;;;;;;;;;;;;;;9.46;100.00;101021.13;5001842;28;19975;-79
2022/11/10 12:27:40;;;;;;;;;;;;;;;9.45;100.00;101018.75;5010819;28;20295;-79
2022/11/10 12:30:24;;;;;;;;;;;;;;;9.56;100.00;101022.22;5020068;28;19928;-79
2022/11/10 12:33:14;;;;;;;;;;;;;;;9.46;100.00;101023.09;5025387;28;19975;-85
2022/11/10 12:35:58;;;;;;;;;;;;;;;9.50;100.00;101032.97;5021894;28;19932;-84
2022/11/10 12:38:55;;;;;;;;;;;;;;;9.51;100.00;101028.19;5012051;28;19928;-84
2022/11/10 12:41:42;;;;;;;;;;;;;;;9.52;100.00;101027.00;5015053;28;19953;-85
2022/11/10 12:44:59;;;;;;;;;;;;;;;9.49;100.00;101041.66;5025372;28;19928;-85
2022/11/10 12:47:43;;;;;;;;;;;;;;;9.51;100.00;101036.50;5010748;28;20295;-85
2022/11/10 12:50:33;;;;;;;;;;;;;;;9.51;100.00;101028.19;5010880;28;20031;-79
2022/11/10 12:53:21;;;;;;;;;;;;;;;9.45;100.00;101030.63;5023231;28;19928;-79
2022/11/10 12:56:16;;;;;;;;;;;;;;;9.49;100.00;101030.59;5010129;28;19943;-79
2022/11/10 12:59:18;;;;;;;;;;;;;;;9.52;100.00;101036.09;5010900;28;19932;-79
2022/11/10 13:02:16;;;;;;;;;;;;;;;9.49;100.00;101034.16;5020304;28;19967;-79
2022/11/10 13:05:12;;;;;;;;;;;;;;;9.54;100.00;101039.28;5014581;28;20021;-79
2022/11/10 13:08:15;;;;;;;;;;;;;;;9.58;100.00;101037.25;5014874;28;19929;-79
2022/11/10 13:11:06;;;;;;;;;;;;;;;9.55;100.00;101040.03;5032258;28;20464;-85
2022/11/10 13:13:51;;;;;;;;;;;;;;;9.50;100.00;101034.94;5029479;28;19933;-85
2022/11/10 13:16:35;;;;;;;;;;;;;;;9.49;100.00;101028.63;5017099;28;19972;-85
2022/11/10 13:19:19;;;;;;;;;;;;;;;9.54;100.00;101039.28;5017653;28;19990;-85
2022/11/10 13:22:23;;;;;;;;;;;;;;;9.56;100.00;101055.47;5017903;28;19952;-85
2022/11/10 13:25:26;;;;;;;;;;;;;;;9.56;100.00;101050.72;5014541;28;20291;-85
2022/11/10 13:28:10;;;;;;;;;;;;;;;9.59;100.00;101046.34;5015140;28;20409;-79
2022/11/10 13:30:54;;;;;;;;;;;;;;;9.63;100.00;101047.09;4999450;28;19992;-78
2022/11/10 13:33:38;;;;;;;;;;;;;;;9.66;100.00;101051.84;5014086;28;20004;-78
2022/11/10 13:36:38;;;;;;;;;;;;;;;9.68;100.00;101058.56;5009199;28;20470;-79
2022/11/10 13:39:24;;;;;;;;;;;;;;;9.70;100.00;101055.38;4994866;28;20323;-79
2022/11/10 13:42:09;;;;;;;;;;;;;;;9.70;100.00;101060.94;5019453;28;20041;-79
2022/11/10 13:44:53;;;;;;;;;;;;;;;9.69;100.00;101067.66;5025365;28;19948;-79
2022/11/10 13:47:37;;;;;;;;;;;;;;;9.63;100.00;101069.25;5033125;28;19929;-85
2022/11/10 13:50:24;;;;;;;;;;;;;;;9.61;100.00;101072.47;5021415;28;20020;-85
2022/11/10 13:53:13;;;;;;;;;;;;;;;9.64;100.00;101068.06;5018544;28;19971;-86
2022/11/10 13:56:00;;;;;;;;;;;;;;;9.66;100.00;101079.56;5022665;28;19929;-86
2022/11/10 13:58:44;;;;;;;;;;;;;;;9.67;100.00;101078.34;5047999;28;19928;-86
2022/11/10 14:01:29;;;;;;;;;;;;;;;9.71;100.00;101090.97;5012923;28;19928;-85
2022/11/10 14:04:31;;;;;;;;;;;;;;;9.65;100.00;101086.28;4996170;28;19929;-79
2022/11/10 14:07:16;;;;;;;;;;;;;;;9.64;100.00;101090.25;4994544;28;20025;-85
2022/11/10 14:10:10;;;;;;;;;;;;;;;9.67;100.00;101089.41;5001055;28;19933;-85
2022/11/10 14:12:56;;;;;;;;;;;;;;;9.65;100.00;101092.63;5006549;28;19980;-85
2022/11/10 14:15:41;;;;;;;;;;;;;;;9.65;100.00;101095.38;4994650;28;19932;-84
2022/11/10 14:18:45;;;;;;;;;;;;;;;9.60;100.00;101103.31;4997147;28;19929;-85
2022/11/10 14:21:48;;;;;;;;;;;;;;;9.53;100.00;101100.59;5007801;28;19984;-85
2022/11/10 14:24:34;;;;;;;;;;;;;;;9.52;100.00;101105.34;5023988;28;19967;-79
2022/11/10 14:27:22;;;;;;;;;;;;;;;9.49;100.00;101106.16;5016923;28;19933;-78